sensor_id;sensor_type;location;lat;lon;timestamp;P1;durP1;ratioP1;P2;durP2;ratioP2
42590;SDS011;28218;53.342;-6.216;2022-07-23T00:01:29;3.95;;;2.22;;
42590;SDS011;28218;53.342;-6.216;2022-07-23T00:03:58;4.43;;;1.80;;
42590;SDS011;28218;53.342;-6.216;2022-07-23T00:06:26;4.22;;;2.63;;
42590;SDS011;28218;53.342;-6.216;2022-07-23T00:08:54;4.10;;;2.22;;
42590;SDS011;28218;53.342;-6.216;2022-07-23T00:11:24;4.22;;;2.20;;
42590;SDS011;28218;53.342;-6.216;2022-07-23T00:13:53;4.90;;;2.60;;
42590;SDS011;28218;53.342;-6.216;2022-07-23T00:16:21;4.97;;;2.78;;
42590;SDS011;28218;53.342;-6.216;2022-07-23T00:18:49;7.95;;;2.60;;
42590;SDS011;28218;53.342;-6.216;2022-07-23T00:21:18;4.30;;;2.72;;
42590;SDS011;28218;53.342;-6.216;2022-07-23T00:23:46;2.38;;;2.10;;
42590;SDS011;28218;53.342;-6.216;2022-07-23T00:26:14;5.03;;;2.33;;
42590;SDS011;28218;53.342;-6.216;2022-07-23T00:28:44;2.75;;;2.00;;
42590;SDS011;28218;53.342;-6.216;2022-07-23T00:31:12;3.80;;;2.22;;
42590;SDS011;28218;53.342;-6.216;2022-07-23T00:33:41;4.88;;;1.73;;
42590;SDS011;28218;53.342;-6.216;2022-07-23T00:36:09;5.47;;;2.13;;
42590;SDS011;28218;53.342;-6.216;2022-07-23T00:38:37;6.00;;;1.90;;
42590;SDS011;28218;53.342;-6.216;2022-07-23T00:41:05;2.38;;;1.85;;
42590;SDS011;28218;53.342;-6.216;2022-07-23T00:43:34;5.47;;;2.50;;
42590;SDS011;28218;53.342;-6.216;2022-07-23T00:46:04;3.33;;;2.40;;
42590;SDS011;28218;53.342;-6.216;2022-07-23T00:48:32;4.25;;;2.80;;
42590;SDS011;28218;53.342;-6.216;2022-07-23T00:51:00;4.13;;;2.25;;
42590;SDS011;28218;53.342;-6.216;2022-07-23T00:53:29;1.75;;;1.65;;
42590;SDS011;28218;53.342;-6.216;2022-07-23T00:55:58;1.60;;;1.50;;
42590;SDS011;28218;53.342;-6.216;2022-07-23T00:58:26;1.73;;;1.63;;
42590;SDS011;28218;53.342;-6.216;2022-07-23T01:00:55;2.15;;;1.95;;
42590;SDS011;28218;53.342;-6.216;2022-07-23T01:03:24;4.82;;;1.70;;
42590;SDS011;28218;53.342;-6.216;2022-07-23T01:05:53;1.48;;;1.38;;
42590;SDS011;28218;53.342;-6.216;2022-07-23T01:08:21;1.90;;;1.42;;
42590;SDS011;28218;53.342;-6.216;2022-07-23T01:10:49;3.17;;;1.20;;
42590;SDS011;28218;53.342;-6.216;2022-07-23T01:13:19;1.92;;;1.20;;
42590;SDS011;28218;53.342;-6.216;2022-07-23T01:15:47;3.05;;;1.35;;
42590;SDS011;28218;53.342;-6.216;2022-07-23T01:18:15;3.47;;;1.85;;
42590;SDS011;28218;53.342;-6.216;2022-07-23T01:20:45;6.80;;;1.60;;
42590;SDS011;28218;53.342;-6.216;2022-07-23T01:23:14;2.28;;;1.60;;
42590;SDS011;28218;53.342;-6.216;2022-07-23T01:25:47;3.05;;;1.55;;
42590;SDS011;28218;53.342;-6.216;2022-07-23T01:28:16;2.53;;;1.17;;
42590;SDS011;28218;53.342;-6.216;2022-07-23T01:30:44;4.72;;;1.60;;
42590;SDS011;28218;53.342;-6.216;2022-07-23T01:33:14;1.55;;;1.45;;
42590;SDS011;28218;53.342;-6.216;2022-07-23T01:35:43;1.55;;;1.45;;
42590;SDS011;28218;53.342;-6.216;2022-07-23T01:38:11;2.30;;;1.50;;
42590;SDS011;28218;53.342;-6.216;2022-07-23T01:40:41;1.85;;;1.73;;
42590;SDS011;28218;53.342;-6.216;2022-07-23T01:43:10;3.80;;;2.03;;
42590;SDS011;28218;53.342;-6.216;2022-07-23T01:45:40;1.70;;;1.60;;
42590;SDS011;28218;53.342;-6.216;2022-07-23T01:48:09;3.08;;;2.20;;
42590;SDS011;28218;53.342;-6.216;2022-07-23T01:50:37;2.15;;;1.48;;
42590;SDS011;28218;53.342;-6.216;2022-07-23T01:53:05;3.60;;;1.52;;
42590;SDS011;28218;53.342;-6.216;2022-07-23T01:55:34;2.25;;;1.70;;
42590;SDS011;28218;53.342;-6.216;2022-07-23T01:58:03;2.10;;;1.60;;
42590;SDS011;28218;53.342;-6.216;2022-07-23T02:00:31;2.05;;;1.83;;
42590;SDS011;28218;53.342;-6.216;2022-07-23T02:03:00;2.97;;;1.92;;
42590;SDS011;28218;53.342;-6.216;2022-07-23T02:05:29;2.53;;;1.88;;
42590;SDS011;28218;53.342;-6.216;2022-07-23T02:07:58;3.28;;;1.80;;
42590;SDS011;28218;53.342;-6.216;2022-07-23T02:10:27;4.03;;;1.92;;
42590;SDS011;28218;53.342;-6.216;2022-07-23T02:12:55;3.10;;;1.98;;
42590;SDS011;28218;53.342;-6.216;2022-07-23T02:15:25;1.63;;;1.45;;
42590;SDS011;28218;53.342;-6.216;2022-07-23T02:17:55;3.13;;;1.90;;
42590;SDS011;28218;53.342;-6.216;2022-07-23T02:20:23;4.30;;;1.63;;
42590;SDS011;28218;53.342;-6.216;2022-07-23T02:22:52;4.10;;;2.13;;
42590;SDS011;28218;53.342;-6.216;2022-07-23T02:25:20;2.20;;;1.65;;
42590;SDS011;28218;53.342;-6.216;2022-07-23T02:27:48;2.03;;;1.80;;
42590;SDS011;28218;53.342;-6.216;2022-07-23T02:30:16;1.92;;;1.80;;
42590;SDS011;28218;53.342;-6.216;2022-07-23T02:32:46;2.72;;;1.70;;
42590;SDS011;28218;53.342;-6.216;2022-07-23T02:35:14;5.53;;;1.70;;
42590;SDS011;28218;53.342;-6.216;2022-07-23T02:37:42;5.22;;;1.88;;
42590;SDS011;28218;53.342;-6.216;2022-07-23T02:40:11;1.83;;;1.70;;
42590;SDS011;28218;53.342;-6.216;2022-07-23T02:42:39;7.78;;;1.70;;
42590;SDS011;28218;53.342;-6.216;2022-07-23T02:45:08;2.10;;;1.67;;
42590;SDS011;28218;53.342;-6.216;2022-07-23T02:47:36;2.95;;;1.85;;
42590;SDS011;28218;53.342;-6.216;2022-07-23T02:50:07;2.80;;;1.60;;
42590;SDS011;28218;53.342;-6.216;2022-07-23T02:52:35;2.00;;;1.80;;
42590;SDS011;28218;53.342;-6.216;2022-07-23T02:55:04;2.22;;;1.77;;
42590;SDS011;28218;53.342;-6.216;2022-07-23T02:57:33;1.83;;;1.73;;
42590;SDS011;28218;53.342;-6.216;2022-07-23T03:00:02;2.72;;;1.67;;
42590;SDS011;28218;53.342;-6.216;2022-07-23T03:02:31;2.28;;;2.08;;
42590;SDS011;28218;53.342;-6.216;2022-07-23T03:04:59;3.15;;;2.20;;
42590;SDS011;28218;53.342;-6.216;2022-07-23T03:07:29;4.20;;;2.60;;
42590;SDS011;28218;53.342;-6.216;2022-07-23T03:09:57;4.32;;;2.60;;
42590;SDS011;28218;53.342;-6.216;2022-07-23T03:12:25;4.63;;;2.90;;
42590;SDS011;28218;53.342;-6.216;2022-07-23T03:14:53;3.38;;;2.83;;
42590;SDS011;28218;53.342;-6.216;2022-07-23T03:17:22;3.90;;;3.22;;
42590;SDS011;28218;53.342;-6.216;2022-07-23T03:19:50;3.83;;;2.85;;
42590;SDS011;28218;53.342;-6.216;2022-07-23T03:22:19;5.57;;;3.10;;
42590;SDS011;28218;53.342;-6.216;2022-07-23T03:24:48;6.65;;;3.25;;
42590;SDS011;28218;53.342;-6.216;2022-07-23T03:27:23;4.88;;;3.20;;
42590;SDS011;28218;53.342;-6.216;2022-07-23T03:29:52;5.13;;;2.50;;
42590;SDS011;28218;53.342;-6.216;2022-07-23T03:32:21;4.20;;;2.95;;
42590;SDS011;28218;53.342;-6.216;2022-07-23T03:34:50;4.55;;;2.88;;
42590;SDS011;28218;53.342;-6.216;2022-07-23T03:37:20;3.88;;;2.95;;
42590;SDS011;28218;53.342;-6.216;2022-07-23T03:39:50;3.97;;;3.13;;
42590;SDS011;28218;53.342;-6.216;2022-07-23T03:42:18;4.28;;;3.10;;
42590;SDS011;28218;53.342;-6.216;2022-07-23T03:44:46;7.00;;;3.15;;
42590;SDS011;28218;53.342;-6.216;2022-07-23T03:47:15;5.38;;;3.15;;
42590;SDS011;28218;53.342;-6.216;2022-07-23T03:49:48;4.40;;;3.40;;
42590;SDS011;28218;53.342;-6.216;2022-07-23T03:52:16;4.13;;;3.08;;
42590;SDS011;28218;53.342;-6.216;2022-07-23T03:54:44;8.32;;;4.03;;
42590;SDS011;28218;53.342;-6.216;2022-07-23T03:57:14;7.85;;;3.50;;
42590;SDS011;28218;53.342;-6.216;2022-07-23T03:59:42;11.23;;;3.90;;
42590;SDS011;28218;53.342;-6.216;2022-07-23T04:02:11;8.40;;;3.63;;
42590;SDS011;28218;53.342;-6.216;2022-07-23T04:04:39;8.15;;;3.67;;
42590;SDS011;28218;53.342;-6.216;2022-07-23T04:07:07;5.20;;;3.47;;
42590;SDS011;28218;53.342;-6.216;2022-07-23T04:09:35;5.43;;;3.40;;
42590;SDS011;28218;53.342;-6.216;2022-07-23T04:12:06;6.88;;;3.60;;
42590;SDS011;28218;53.342;-6.216;2022-07-23T04:14:36;10.23;;;3.75;;
42590;SDS011;28218;53.342;-6.216;2022-07-23T04:17:04;6.82;;;3.83;;
42590;SDS011;28218;53.342;-6.216;2022-07-23T04:19:32;7.95;;;4.22;;
42590;SDS011;28218;53.342;-6.216;2022-07-23T04:22:02;6.13;;;3.85;;
42590;SDS011;28218;53.342;-6.216;2022-07-23T04:24:30;4.38;;;3.90;;
42590;SDS011;28218;53.342;-6.216;2022-07-23T04:26:59;5.00;;;4.38;;
42590;SDS011;28218;53.342;-6.216;2022-07-23T04:29:28;8.10;;;4.40;;
42590;SDS011;28218;53.342;-6.216;2022-07-23T04:31:58;5.80;;;3.85;;
42590;SDS011;28218;53.342;-6.216;2022-07-23T04:34:26;9.25;;;5.07;;
42590;SDS011;28218;53.342;-6.216;2022-07-23T04:36:54;10.02;;;3.92;;
42590;SDS011;28218;53.342;-6.216;2022-07-23T04:39:22;7.18;;;4.28;;
42590;SDS011;28218;53.342;-6.216;2022-07-23T04:41:51;5.93;;;4.13;;
42590;SDS011;28218;53.342;-6.216;2022-07-23T04:44:19;14.20;;;4.43;;
42590;SDS011;28218;53.342;-6.216;2022-07-23T04:46:47;6.68;;;4.45;;
42590;SDS011;28218;53.342;-6.216;2022-07-23T04:49:17;9.10;;;4.40;;
42590;SDS011;28218;53.342;-6.216;2022-07-23T04:51:46;8.02;;;3.70;;
42590;SDS011;28218;53.342;-6.216;2022-07-23T04:54:14;4.78;;;4.28;;
42590;SDS011;28218;53.342;-6.216;2022-07-23T04:56:44;7.90;;;4.55;;
42590;SDS011;28218;53.342;-6.216;2022-07-23T04:59:12;5.55;;;4.38;;
42590;SDS011;28218;53.342;-6.216;2022-07-23T05:01:40;6.97;;;4.00;;
42590;SDS011;28218;53.342;-6.216;2022-07-23T05:04:09;7.93;;;4.30;;
42590;SDS011;28218;53.342;-6.216;2022-07-23T05:06:39;4.75;;;4.25;;
42590;SDS011;28218;53.342;-6.216;2022-07-23T05:09:07;5.20;;;4.63;;
42590;SDS011;28218;53.342;-6.216;2022-07-23T05:11:35;5.00;;;4.10;;
42590;SDS011;28218;53.342;-6.216;2022-07-23T05:14:04;5.18;;;3.47;;
42590;SDS011;28218;53.342;-6.216;2022-07-23T05:16:32;5.63;;;3.90;;
42590;SDS011;28218;53.342;-6.216;2022-07-23T05:19:00;6.43;;;4.10;;
42590;SDS011;28218;53.342;-6.216;2022-07-23T05:21:29;7.43;;;4.22;;
42590;SDS011;28218;53.342;-6.216;2022-07-23T05:23:59;8.23;;;3.80;;
42590;SDS011;28218;53.342;-6.216;2022-07-23T05:26:27;4.57;;;3.80;;
42590;SDS011;28218;53.342;-6.216;2022-07-23T05:28:55;8.90;;;4.25;;
42590;SDS011;28218;53.342;-6.216;2022-07-23T05:31:24;6.18;;;3.38;;
42590;SDS011;28218;53.342;-6.216;2022-07-23T05:33:52;7.00;;;4.07;;
42590;SDS011;28218;53.342;-6.216;2022-07-23T05:36:21;5.40;;;4.10;;
42590;SDS011;28218;53.342;-6.216;2022-07-23T05:38:49;4.72;;;4.03;;
42590;SDS011;28218;53.342;-6.216;2022-07-23T05:41:19;9.68;;;3.50;;
42590;SDS011;28218;53.342;-6.216;2022-07-23T05:43:47;8.20;;;4.40;;
42590;SDS011;28218;53.342;-6.216;2022-07-23T05:46:15;5.43;;;4.00;;
42590;SDS011;28218;53.342;-6.216;2022-07-23T05:48:44;8.32;;;4.28;;
42590;SDS011;28218;53.342;-6.216;2022-07-23T05:51:19;6.72;;;3.33;;
42590;SDS011;28218;53.342;-6.216;2022-07-23T05:53:48;7.63;;;4.30;;
42590;SDS011;28218;53.342;-6.216;2022-07-23T05:56:16;5.97;;;4.15;;
42590;SDS011;28218;53.342;-6.216;2022-07-23T05:58:47;11.77;;;4.70;;
42590;SDS011;28218;53.342;-6.216;2022-07-23T06:01:15;14.48;;;5.32;;
42590;SDS011;28218;53.342;-6.216;2022-07-23T06:03:43;10.95;;;5.05;;
42590;SDS011;28218;53.342;-6.216;2022-07-23T06:06:11;10.18;;;4.43;;
42590;SDS011;28218;53.342;-6.216;2022-07-23T06:08:40;9.48;;;5.30;;
42590;SDS011;28218;53.342;-6.216;2022-07-23T06:11:09;8.98;;;4.82;;
42590;SDS011;28218;53.342;-6.216;2022-07-23T06:13:37;6.00;;;4.40;;
42590;SDS011;28218;53.342;-6.216;2022-07-23T06:16:07;4.55;;;3.72;;
42590;SDS011;28218;53.342;-6.216;2022-07-23T06:18:35;7.30;;;3.58;;
42590;SDS011;28218;53.342;-6.216;2022-07-23T06:21:03;5.13;;;3.85;;
42590;SDS011;28218;53.342;-6.216;2022-07-23T06:23:52;10.70;;;4.40;;
42590;SDS011;28218;53.342;-6.216;2022-07-23T06:26:20;9.80;;;4.93;;
42590;SDS011;28218;53.342;-6.216;2022-07-23T06:28:48;15.32;;;4.90;;
42590;SDS011;28218;53.342;-6.216;2022-07-23T06:31:18;9.13;;;4.93;;
42590;SDS011;28218;53.342;-6.216;2022-07-23T06:33:46;10.98;;;4.82;;
42590;SDS011;28218;53.342;-6.216;2022-07-23T06:36:14;12.20;;;4.50;;
42590;SDS011;28218;53.342;-6.216;2022-07-23T06:38:42;13.50;;;3.78;;
42590;SDS011;28218;53.342;-6.216;2022-07-23T06:41:14;16.33;;;4.65;;
42590;SDS011;28218;53.342;-6.216;2022-07-23T06:43:42;16.75;;;4.15;;
42590;SDS011;28218;53.342;-6.216;2022-07-23T06:46:10;5.50;;;3.95;;
42590;SDS011;28218;53.342;-6.216;2022-07-23T06:48:40;12.10;;;4.10;;
42590;SDS011;28218;53.342;-6.216;2022-07-23T06:51:08;10.30;;;4.20;;
42590;SDS011;28218;53.342;-6.216;2022-07-23T06:53:36;7.38;;;3.90;;
42590;SDS011;28218;53.342;-6.216;2022-07-23T06:56:04;7.03;;;3.97;;
42590;SDS011;28218;53.342;-6.216;2022-07-23T06:58:33;6.15;;;3.90;;
42590;SDS011;28218;53.342;-6.216;2022-07-23T07:01:01;4.90;;;3.53;;
42590;SDS011;28218;53.342;-6.216;2022-07-23T07:03:29;8.15;;;3.65;;
42590;SDS011;28218;53.342;-6.216;2022-07-23T07:05:59;5.65;;;4.13;;
42590;SDS011;28218;53.342;-6.216;2022-07-23T07:08:28;6.80;;;4.53;;
42590;SDS011;28218;53.342;-6.216;2022-07-23T07:10:57;7.63;;;4.55;;
42590;SDS011;28218;53.342;-6.216;2022-07-23T07:13:25;8.07;;;4.80;;
42590;SDS011;28218;53.342;-6.216;2022-07-23T07:15:53;6.15;;;4.80;;
42590;SDS011;28218;53.342;-6.216;2022-07-23T07:18:21;6.18;;;4.15;;
42590;SDS011;28218;53.342;-6.216;2022-07-23T07:20:50;8.38;;;4.60;;
42590;SDS011;28218;53.342;-6.216;2022-07-23T07:23:23;10.32;;;4.13;;
42590;SDS011;28218;53.342;-6.216;2022-07-23T07:25:51;10.75;;;4.60;;
42590;SDS011;28218;53.342;-6.216;2022-07-23T07:28:20;8.27;;;4.32;;
42590;SDS011;28218;53.342;-6.216;2022-07-23T07:30:48;10.48;;;4.93;;
42590;SDS011;28218;53.342;-6.216;2022-07-23T07:33:17;7.43;;;4.88;;
42590;SDS011;28218;53.342;-6.216;2022-07-23T07:35:45;6.60;;;4.30;;
42590;SDS011;28218;53.342;-6.216;2022-07-23T07:38:13;7.57;;;4.10;;
42590;SDS011;28218;53.342;-6.216;2022-07-23T07:40:43;9.02;;;4.68;;
42590;SDS011;28218;53.342;-6.216;2022-07-23T07:43:11;8.27;;;4.43;;
42590;SDS011;28218;53.342;-6.216;2022-07-23T07:45:40;4.43;;;4.03;;
42590;SDS011;28218;53.342;-6.216;2022-07-23T07:48:08;6.00;;;4.57;;
42590;SDS011;28218;53.342;-6.216;2022-07-23T07:50:36;10.23;;;5.25;;
42590;SDS011;28218;53.342;-6.216;2022-07-23T07:53:04;7.00;;;5.45;;
42590;SDS011;28218;53.342;-6.216;2022-07-23T07:55:33;6.95;;;4.95;;
42590;SDS011;28218;53.342;-6.216;2022-07-23T07:58:02;6.00;;;4.47;;
42590;SDS011;28218;53.342;-6.216;2022-07-23T08:00:31;7.78;;;4.85;;
42590;SDS011;28218;53.342;-6.216;2022-07-23T08:02:59;7.45;;;4.88;;
42590;SDS011;28218;53.342;-6.216;2022-07-23T08:05:47;6.05;;;4.13;;
42590;SDS011;28218;53.342;-6.216;2022-07-23T08:08:16;9.48;;;4.75;;
42590;SDS011;28218;53.342;-6.216;2022-07-23T08:10:44;6.03;;;4.07;;
42590;SDS011;28218;53.342;-6.216;2022-07-23T08:13:15;9.23;;;4.05;;
42590;SDS011;28218;53.342;-6.216;2022-07-23T08:15:44;5.90;;;3.47;;
42590;SDS011;28218;53.342;-6.216;2022-07-23T08:18:12;6.80;;;4.57;;
42590;SDS011;28218;53.342;-6.216;2022-07-23T08:20:40;8.05;;;5.03;;
42590;SDS011;28218;53.342;-6.216;2022-07-23T08:23:09;7.28;;;4.70;;
42590;SDS011;28218;53.342;-6.216;2022-07-23T08:25:38;7.00;;;4.38;;
42590;SDS011;28218;53.342;-6.216;2022-07-23T08:28:08;6.75;;;2.97;;
42590;SDS011;28218;53.342;-6.216;2022-07-23T08:30:40;5.07;;;3.90;;
42590;SDS011;28218;53.342;-6.216;2022-07-23T08:33:09;3.72;;;2.45;;
42590;SDS011;28218;53.342;-6.216;2022-07-23T08:35:58;4.75;;;3.25;;
42590;SDS011;28218;53.342;-6.216;2022-07-23T08:38:29;4.97;;;2.63;;
42590;SDS011;28218;53.342;-6.216;2022-07-23T08:40:59;5.15;;;3.25;;
42590;SDS011;28218;53.342;-6.216;2022-07-23T08:43:28;3.67;;;3.22;;
42590;SDS011;28218;53.342;-6.216;2022-07-23T08:45:59;3.58;;;2.90;;
42590;SDS011;28218;53.342;-6.216;2022-07-23T08:48:29;3.08;;;2.83;;
42590;SDS011;28218;53.342;-6.216;2022-07-23T08:50:59;4.32;;;3.92;;
42590;SDS011;28218;53.342;-6.216;2022-07-23T08:53:29;7.10;;;3.50;;
42590;SDS011;28218;53.342;-6.216;2022-07-23T08:55:59;7.45;;;3.85;;
42590;SDS011;28218;53.342;-6.216;2022-07-23T08:58:29;7.45;;;3.80;;
42590;SDS011;28218;53.342;-6.216;2022-07-23T09:01:00;9.95;;;4.75;;
42590;SDS011;28218;53.342;-6.216;2022-07-23T09:03:30;4.72;;;3.03;;
42590;SDS011;28218;53.342;-6.216;2022-07-23T09:06:00;5.93;;;3.60;;
42590;SDS011;28218;53.342;-6.216;2022-07-23T09:08:34;10.70;;;4.07;;
42590;SDS011;28218;53.342;-6.216;2022-07-23T09:11:03;6.57;;;3.90;;
42590;SDS011;28218;53.342;-6.216;2022-07-23T09:13:34;8.90;;;3.10;;
42590;SDS011;28218;53.342;-6.216;2022-07-23T09:16:07;8.32;;;4.13;;
42590;SDS011;28218;53.342;-6.216;2022-07-23T09:18:38;21.83;;;6.38;;
42590;SDS011;28218;53.342;-6.216;2022-07-23T09:21:14;15.07;;;5.72;;
42590;SDS011;28218;53.342;-6.216;2022-07-23T09:23:45;16.98;;;5.65;;
42590;SDS011;28218;53.342;-6.216;2022-07-23T09:26:19;19.73;;;5.53;;
42590;SDS011;28218;53.342;-6.216;2022-07-23T09:28:58;13.43;;;5.72;;
42590;SDS011;28218;53.342;-6.216;2022-07-23T09:31:34;14.30;;;4.57;;
42590;SDS011;28218;53.342;-6.216;2022-07-23T09:34:11;7.40;;;3.90;;
42590;SDS011;28218;53.342;-6.216;2022-07-23T09:36:41;3.40;;;2.92;;
42590;SDS011;28218;53.342;-6.216;2022-07-23T09:39:10;3.53;;;1.75;;
42590;SDS011;28218;53.342;-6.216;2022-07-23T09:41:40;3.08;;;1.83;;
42590;SDS011;28218;53.342;-6.216;2022-07-23T09:44:10;4.72;;;1.67;;
42590;SDS011;28218;53.342;-6.216;2022-07-23T09:46:42;1.50;;;1.40;;
42590;SDS011;28218;53.342;-6.216;2022-07-23T09:49:13;5.35;;;1.48;;
42590;SDS011;28218;53.342;-6.216;2022-07-23T09:54:22;3.17;;;1.52;;
42590;SDS011;28218;53.342;-6.216;2022-07-23T09:56:53;2.75;;;1.40;;
42590;SDS011;28218;53.342;-6.216;2022-07-23T09:59:23;5.38;;;1.63;;
42590;SDS011;28218;53.342;-6.216;2022-07-23T10:01:55;1.42;;;1.27;;
42590;SDS011;28218;53.342;-6.216;2022-07-23T10:04:26;2.05;;;1.27;;
42590;SDS011;28218;53.342;-6.216;2022-07-23T10:06:57;1.23;;;1.13;;
42590;SDS011;28218;53.342;-6.216;2022-07-23T10:09:27;2.92;;;1.38;;
42590;SDS011;28218;53.342;-6.216;2022-07-23T10:14:40;3.50;;;1.58;;
42590;SDS011;28218;53.342;-6.216;2022-07-23T10:17:10;1.27;;;1.20;;
42590;SDS011;28218;53.342;-6.216;2022-07-23T10:19:39;2.53;;;1.20;;
42590;SDS011;28218;53.342;-6.216;2022-07-23T10:22:08;4.32;;;1.35;;
42590;SDS011;28218;53.342;-6.216;2022-07-23T10:24:58;1.77;;;1.30;;
42590;SDS011;28218;53.342;-6.216;2022-07-23T10:30:39;2.88;;;1.30;;
42590;SDS011;28218;53.342;-6.216;2022-07-23T10:33:17;2.20;;;1.42;;
42590;SDS011;28218;53.342;-6.216;2022-07-23T10:35:58;5.10;;;1.83;;
42590;SDS011;28218;53.342;-6.216;2022-07-23T10:38:36;3.65;;;1.85;;
42590;SDS011;28218;53.342;-6.216;2022-07-23T10:41:10;4.72;;;1.58;;
42590;SDS011;28218;53.342;-6.216;2022-07-23T10:43:39;2.00;;;1.50;;
42590;SDS011;28218;53.342;-6.216;2022-07-23T10:46:20;2.92;;;1.73;;
42590;SDS011;28218;53.342;-6.216;2022-07-23T10:54:51;2.03;;;1.40;;
42590;SDS011;28218;53.342;-6.216;2022-07-23T10:57:21;2.83;;;1.60;;
42590;SDS011;28218;53.342;-6.216;2022-07-23T11:02:52;4.05;;;1.40;;
42590;SDS011;28218;53.342;-6.216;2022-07-23T11:05:23;1.45;;;1.20;;
42590;SDS011;28218;53.342;-6.216;2022-07-23T11:10:44;1.77;;;1.10;;
42590;SDS011;28218;53.342;-6.216;2022-07-23T11:16:12;4.25;;;1.17;;
42590;SDS011;28218;53.342;-6.216;2022-07-23T11:18:55;2.47;;;1.30;;
42590;SDS011;28218;53.342;-6.216;2022-07-23T11:21:42;2.75;;;0.80;;
42590;SDS011;28218;53.342;-6.216;2022-07-23T11:24:23;1.77;;;1.20;;
42590;SDS011;28218;53.342;-6.216;2022-07-23T11:26:56;7.00;;;1.23;;
42590;SDS011;28218;53.342;-6.216;2022-07-23T11:29:39;2.13;;;0.80;;
42590;SDS011;28218;53.342;-6.216;2022-07-23T11:32:19;3.17;;;1.20;;
42590;SDS011;28218;53.342;-6.216;2022-07-23T11:34:51;0.80;;;0.80;;
42590;SDS011;28218;53.342;-6.216;2022-07-23T11:37:35;1.10;;;0.80;;
42590;SDS011;28218;53.342;-6.216;2022-07-23T11:40:06;2.55;;;0.80;;
42590;SDS011;28218;53.342;-6.216;2022-07-23T11:45:06;0.70;;;0.70;;
42590;SDS011;28218;53.342;-6.216;2022-07-23T11:47:35;0.57;;;0.50;;
42590;SDS011;28218;53.342;-6.216;2022-07-23T11:50:04;1.05;;;0.70;;
42590;SDS011;28218;53.342;-6.216;2022-07-23T11:52:36;1.63;;;0.60;;
42590;SDS011;28218;53.342;-6.216;2022-07-23T11:55:04;2.28;;;0.60;;
42590;SDS011;28218;53.342;-6.216;2022-07-23T11:57:35;0.93;;;0.50;;
42590;SDS011;28218;53.342;-6.216;2022-07-23T12:00:06;0.60;;;0.60;;
42590;SDS011;28218;53.342;-6.216;2022-07-23T12:02:37;0.70;;;0.70;;
42590;SDS011;28218;53.342;-6.216;2022-07-23T12:05:06;1.05;;;0.50;;
42590;SDS011;28218;53.342;-6.216;2022-07-23T12:07:38;1.50;;;0.60;;
42590;SDS011;28218;53.342;-6.216;2022-07-23T12:10:09;0.80;;;0.57;;
42590;SDS011;28218;53.342;-6.216;2022-07-23T12:12:41;0.65;;;0.65;;
42590;SDS011;28218;53.342;-6.216;2022-07-23T12:15:10;0.93;;;0.70;;
42590;SDS011;28218;53.342;-6.216;2022-07-23T12:17:40;0.50;;;0.50;;
42590;SDS011;28218;53.342;-6.216;2022-07-23T12:20:17;4.47;;;0.50;;
42590;SDS011;28218;53.342;-6.216;2022-07-23T12:22:50;0.60;;;0.60;;
42590;SDS011;28218;53.342;-6.216;2022-07-23T12:27:58;0.60;;;0.60;;
42590;SDS011;28218;53.342;-6.216;2022-07-23T12:30:29;1.63;;;0.65;;
42590;SDS011;28218;53.342;-6.216;2022-07-23T12:33:00;2.20;;;0.60;;
42590;SDS011;28218;53.342;-6.216;2022-07-23T12:35:31;0.50;;;0.50;;
42590;SDS011;28218;53.342;-6.216;2022-07-23T12:38:04;0.55;;;0.55;;
42590;SDS011;28218;53.342;-6.216;2022-07-23T12:40:34;2.25;;;0.80;;
42590;SDS011;28218;53.342;-6.216;2022-07-23T12:43:05;0.50;;;0.50;;
42590;SDS011;28218;53.342;-6.216;2022-07-23T12:45:42;0.40;;;0.40;;
42590;SDS011;28218;53.342;-6.216;2022-07-23T12:48:23;0.50;;;0.50;;
42590;SDS011;28218;53.342;-6.216;2022-07-23T12:50:53;0.60;;;0.60;;
42590;SDS011;28218;53.342;-6.216;2022-07-23T12:53:26;0.50;;;0.50;;
42590;SDS011;28218;53.342;-6.216;2022-07-23T12:55:58;0.50;;;0.50;;
42590;SDS011;28218;53.342;-6.216;2022-07-23T12:58:46;0.40;;;0.40;;
42590;SDS011;28218;53.342;-6.216;2022-07-23T13:01:24;0.77;;;0.40;;
42590;SDS011;28218;53.342;-6.216;2022-07-23T13:03:55;3.63;;;0.55;;
42590;SDS011;28218;53.342;-6.216;2022-07-23T13:08:56;0.50;;;0.50;;
42590;SDS011;28218;53.342;-6.216;2022-07-23T13:11:26;0.80;;;0.80;;
42590;SDS011;28218;53.342;-6.216;2022-07-23T13:13:56;0.50;;;0.50;;
42590;SDS011;28218;53.342;-6.216;2022-07-23T13:16:24;0.57;;;0.50;;
42590;SDS011;28218;53.342;-6.216;2022-07-23T13:18:53;1.10;;;0.50;;
42590;SDS011;28218;53.342;-6.216;2022-07-23T13:21:24;1.52;;;0.50;;
42590;SDS011;28218;53.342;-6.216;2022-07-23T13:23:55;0.60;;;0.60;;
42590;SDS011;28218;53.342;-6.216;2022-07-23T13:26:24;0.57;;;0.55;;
42590;SDS011;28218;53.342;-6.216;2022-07-23T13:28:53;0.85;;;0.50;;
42590;SDS011;28218;53.342;-6.216;2022-07-23T13:31:22;0.88;;;0.57;;
42590;SDS011;28218;53.342;-6.216;2022-07-23T13:33:51;2.53;;;0.85;;
42590;SDS011;28218;53.342;-6.216;2022-07-23T13:36:19;4.03;;;1.02;;
42590;SDS011;28218;53.342;-6.216;2022-07-23T13:38:47;2.42;;;0.60;;
42590;SDS011;28218;53.342;-6.216;2022-07-23T13:41:17;1.23;;;0.55;;
42590;SDS011;28218;53.342;-6.216;2022-07-23T13:43:46;3.47;;;1.08;;
42590;SDS011;28218;53.342;-6.216;2022-07-23T13:46:14;0.82;;;0.60;;
42590;SDS011;28218;53.342;-6.216;2022-07-23T13:48:42;2.10;;;0.90;;
42590;SDS011;28218;53.342;-6.216;2022-07-23T13:51:11;4.32;;;0.85;;
42590;SDS011;28218;53.342;-6.216;2022-07-23T13:53:39;1.75;;;0.98;;
42590;SDS011;28218;53.342;-6.216;2022-07-23T13:56:07;1.23;;;0.80;;
42590;SDS011;28218;53.342;-6.216;2022-07-23T13:58:37;1.48;;;0.80;;
42590;SDS011;28218;53.342;-6.216;2022-07-23T14:01:07;4.30;;;0.70;;
42590;SDS011;28218;53.342;-6.216;2022-07-23T14:03:35;4.47;;;0.80;;
42590;SDS011;28218;53.342;-6.216;2022-07-23T14:06:03;3.40;;;0.93;;
42590;SDS011;28218;53.342;-6.216;2022-07-23T14:08:41;2.38;;;0.82;;
42590;SDS011;28218;53.342;-6.216;2022-07-23T14:11:10;1.65;;;0.80;;
42590;SDS011;28218;53.342;-6.216;2022-07-23T14:13:40;1.35;;;0.80;;
42590;SDS011;28218;53.342;-6.216;2022-07-23T14:16:09;6.10;;;1.13;;
42590;SDS011;28218;53.342;-6.216;2022-07-23T14:18:37;1.98;;;0.95;;
42590;SDS011;28218;53.342;-6.216;2022-07-23T14:21:06;2.60;;;1.17;;
42590;SDS011;28218;53.342;-6.216;2022-07-23T14:23:34;2.70;;;1.30;;
42590;SDS011;28218;53.342;-6.216;2022-07-23T14:26:05;1.73;;;0.90;;
42590;SDS011;28218;53.342;-6.216;2022-07-23T14:28:33;5.45;;;1.27;;
42590;SDS011;28218;53.342;-6.216;2022-07-23T14:31:07;5.55;;;1.13;;
42590;SDS011;28218;53.342;-6.216;2022-07-23T14:33:46;5.13;;;1.60;;
42590;SDS011;28218;53.342;-6.216;2022-07-23T14:36:15;4.78;;;1.55;;
42590;SDS011;28218;53.342;-6.216;2022-07-23T14:38:44;6.28;;;1.60;;
42590;SDS011;28218;53.342;-6.216;2022-07-23T14:41:12;7.18;;;1.90;;
42590;SDS011;28218;53.342;-6.216;2022-07-23T14:43:41;6.95;;;1.40;;
42590;SDS011;28218;53.342;-6.216;2022-07-23T14:46:12;12.82;;;2.15;;
42590;SDS011;28218;53.342;-6.216;2022-07-23T14:48:41;5.57;;;1.60;;
42590;SDS011;28218;53.342;-6.216;2022-07-23T14:51:09;9.60;;;1.70;;
42590;SDS011;28218;53.342;-6.216;2022-07-23T14:53:37;4.25;;;1.50;;
42590;SDS011;28218;53.342;-6.216;2022-07-23T14:56:06;7.65;;;1.90;;
42590;SDS011;28218;53.342;-6.216;2022-07-23T14:58:34;7.70;;;2.22;;
42590;SDS011;28218;53.342;-6.216;2022-07-23T15:01:03;6.05;;;1.73;;
42590;SDS011;28218;53.342;-6.216;2022-07-23T15:03:33;6.78;;;2.15;;
42590;SDS011;28218;53.342;-6.216;2022-07-23T15:06:08;9.43;;;2.10;;
42590;SDS011;28218;53.342;-6.216;2022-07-23T15:08:38;4.18;;;1.50;;
42590;SDS011;28218;53.342;-6.216;2022-07-23T15:11:06;7.88;;;1.73;;
42590;SDS011;28218;53.342;-6.216;2022-07-23T15:13:36;8.10;;;1.42;;
42590;SDS011;28218;53.342;-6.216;2022-07-23T15:16:05;5.50;;;2.00;;
42590;SDS011;28218;53.342;-6.216;2022-07-23T15:18:37;6.68;;;1.52;;
42590;SDS011;28218;53.342;-6.216;2022-07-23T15:21:05;7.60;;;1.90;;